Time;durP1;ratioP1;P1;durP2;ratioP2;P2;SDS_P1;SDS_P2;PMS_P1;PMS_P2;Temp;Humidity;BMP_temperature;BMP_pressure;BME280_temperature;BME280_humidity;BME280_pressure;Samples;Min_cycle;Max_cycle;Signal;HPM_P1;HPM_P2
2022/01/20 00:00:13;;;;;;;20.38;2.70;;;7.00;99.90;;;;;;5077303;28;20115;-66
2022/01/20 00:02:40;;;;;;;17.17;2.85;;;7.00;99.90;;;;;;5077207;28;20140;-66
2022/01/20 00:27:23;;;;;;;16.70;2.70;;;6.10;99.90;;;;;;5077514;28;20050;-66
2022/01/20 00:32:41;;;;;;;12.18;2.33;;;5.90;99.90;;;;;;5076902;28;20069;-67
2022/01/20 00:35:18;;;;;;;21.98;2.97;;;5.90;99.90;;;;;;5076718;28;20475;-67
2022/01/20 00:37:44;;;;;;;18.85;3.10;;;6.00;99.90;;;;;;5076893;28;20035;-67
2022/01/20 00:40:11;;;;;;;18.85;2.50;;;6.10;99.90;;;;;;5076086;28;20035;-65
2022/01/20 00:42:37;;;;;;;17.08;2.55;;;6.30;99.90;;;;;;5076810;28;20028;-66
2022/01/20 00:45:04;;;;;;;19.88;2.75;;;6.40;99.90;;;;;;5077356;28;20079;-65
2022/01/20 00:47:30;;;;;;;19.40;2.47;;;6.40;99.90;;;;;;5079052;28;20338;-66
2022/01/20 00:49:56;;;;;;;18.08;2.80;;;6.40;99.90;;;;;;5081586;28;20033;-67
2022/01/20 00:52:23;;;;;;;17.35;2.72;;;6.50;99.90;;;;;;5063532;28;20396;-66
2022/01/20 00:54:49;;;;;;;18.90;2.50;;;6.50;99.90;;;;;;5080756;28;20032;-64
2022/01/20 00:57:16;;;;;;;15.48;2.20;;;6.50;99.90;;;;;;5080973;28;20033;-65
2022/01/20 00:59:43;;;;;;;14.25;1.90;;;6.50;99.90;;;;;;5079854;28;20064;-66
2022/01/20 01:02:16;;;;;;;24.67;2.75;;;6.50;99.90;;;;;;5080601;28;20068;-66
2022/01/20 01:04:42;;;;;;;17.05;2.75;;;6.50;99.90;;;;;;5063279;28;20036;-67
2022/01/20 01:09:38;;;;;;;17.35;2.53;;;6.60;99.90;;;;;;5079748;28;20041;-66
2022/01/20 01:12:06;;;;;;;22.05;2.67;;;6.60;99.90;;;;;;5080678;28;20292;-66
2022/01/20 01:14:34;;;;;;;13.40;2.08;;;6.60;99.90;;;;;;5079619;28;20281;-66
2022/01/20 01:24:44;;;;;;;11.02;1.50;;;6.60;99.90;;;;;;5080191;28;20093;-67
2022/01/20 01:27:13;;;;;;;15.57;2.05;;;6.60;99.90;;;;;;5079280;28;20032;-66
2022/01/20 01:30:02;;;;;;;17.08;2.15;;;6.60;99.90;;;;;;5062549;28;20028;-66
2022/01/20 01:35:06;;;;;;;10.90;1.83;;;6.60;99.90;;;;;;5079217;28;20045;-64
2022/01/20 01:40:06;;;;;;;14.38;1.80;;;6.70;99.90;;;;;;5079386;28;20059;-65
2022/01/20 01:42:42;;;;;;;14.68;1.42;;;6.80;99.90;;;;;;5079130;28;20029;-66
2022/01/20 01:45:30;;;;;;;12.70;1.75;;;6.90;99.90;;;;;;5080236;28;20020;-67
2022/01/20 01:47:57;;;;;;;6.65;1.40;;;6.90;99.90;;;;;;5079375;28;20033;-66
2022/01/20 01:50:25;;;;;;;11.00;1.60;;;6.60;99.90;;;;;;5078930;28;20082;-66
2022/01/20 01:52:52;;;;;;;9.95;1.35;;;6.50;99.90;;;;;;5079297;28;20032;-66
2022/01/20 01:55:18;;;;;;;11.38;1.63;;;6.40;99.90;;;;;;5078940;28;20123;-66
2022/01/20 01:57:44;;;;;;;10.55;1.23;;;6.40;99.90;;;;;;5078212;28;20032;-66
2022/01/20 02:00:13;;;;;;;7.45;1.17;;;6.50;99.90;;;;;;5078745;28;20043;-66
2022/01/20 02:02:47;;;;;;;8.65;1.13;;;6.70;99.90;;;;;;5078688;28;20032;-66
2022/01/20 02:05:19;;;;;;;8.68;1.25;;;6.80;99.90;;;;;;5078730;28;20032;-66
2022/01/20 02:19:08;;;;;;;6.25;1.30;;;6.50;99.90;;;;;;5081027;28;20036;-67
2022/01/20 02:21:49;;;;;;;8.80;1.52;;;6.60;99.90;;;;;;5064928;28;20036;-66
2022/01/20 02:24:17;;;;;;;6.32;1.13;;;6.40;99.90;;;;;;5086851;28;20037;-66
2022/01/20 02:26:43;;;;;;;9.25;1.10;;;6.50;99.90;;;;;;5079260;28;20276;-66
2022/01/20 02:29:11;;;;;;;8.57;1.00;;;6.60;99.90;;;;;;5078098;28;20131;-67
2022/01/20 02:31:37;;;;;;;6.57;1.17;;;6.60;99.90;;;;;;5078941;28;20044;-65
2022/01/20 02:34:04;;;;;;;14.50;1.67;;;6.70;99.90;;;;;;5078713;28;20277;-66
2022/01/20 02:36:36;;;;;;;9.82;1.38;;;6.90;99.90;;;;;;5079202;28;20119;-66
2022/01/20 02:39:22;;;;;;;9.55;1.48;;;6.90;99.90;;;;;;5078019;28;20115;-67
2022/01/20 02:44:53;;;;;;;5.07;0.98;;;6.70;99.90;;;;;;5078808;28;20048;-66
2022/01/20 02:47:21;;;;;;;6.03;1.23;;;6.70;99.90;;;;;;5077882;28;20304;-63
2022/01/20 02:49:49;;;;;;;10.75;1.65;;;6.90;99.90;;;;;;5078635;28;20119;-60
2022/01/20 02:52:14;;;;;;;7.75;1.42;;;6.70;99.90;;;;;;5078484;28;20100;-64
2022/01/20 02:54:41;;;;;;;7.18;1.58;;;6.60;99.90;;;;;;5078461;28;20443;-63
2022/01/20 02:57:08;;;;;;;10.13;1.48;;;6.40;99.90;;;;;;5060992;28;20024;-62
2022/01/20 02:59:34;;;;;;;7.05;1.48;;;6.30;99.90;;;;;;5077625;28;20050;-62
2022/01/20 03:02:04;;;;;;;6.88;1.88;;;6.10;99.90;;;;;;5078326;28;20047;-63
2022/01/20 03:04:30;;;;;;;6.60;1.92;;;6.00;99.90;;;;;;5078532;28;20299;-64
2022/01/20 03:06:59;;;;;;;7.32;1.67;;;6.10;99.90;;;;;;5077398;28;20113;-63
2022/01/20 03:09:26;;;;;;;11.63;1.50;;;6.10;99.90;;;;;;5076379;28;20036;-64
2022/01/20 03:11:52;;;;;;;6.68;1.70;;;6.10;99.90;;;;;;5078707;28;20085;-65
2022/01/20 03:14:18;;;;;;;8.30;1.15;;;6.10;99.90;;;;;;5078026;28;20064;-64
2022/01/20 03:16:45;;;;;;;3.65;0.88;;;6.10;99.90;;;;;;5077207;28;20029;-64
2022/01/20 03:19:12;;;;;;;5.35;1.00;;;5.90;99.90;;;;;;5077946;28;20033;-62
2022/01/20 03:21:39;;;;;;;12.38;1.23;;;5.90;99.90;;;;;;5077084;28;20316;-63
2022/01/20 03:24:06;;;;;;;8.25;1.40;;;6.00;99.90;;;;;;5077782;28;20040;-62
2022/01/20 03:26:33;;;;;;;9.45;1.45;;;6.00;99.90;;;;;;5077807;28;20032;-63
2022/01/20 03:28:58;;;;;;;7.90;1.25;;;5.90;99.90;;;;;;5060141;28;20024;-63
2022/01/20 03:31:25;;;;;;;8.02;1.30;;;5.80;99.90;;;;;;5076965;28;20421;-64
2022/01/20 03:33:52;;;;;;;4.85;0.95;;;5.90;99.90;;;;;;5076682;28;20061;-62
2022/01/20 03:36:18;;;;;;;5.55;0.98;;;5.90;99.90;;;;;;5076866;28;20033;-61
2022/01/20 03:38:44;;;;;;;6.80;0.93;;;5.70;99.90;;;;;;5077997;28;20384;-63
2022/01/20 03:41:12;;;;;;;4.38;0.65;;;5.50;99.90;;;;;;5060415;28;20395;-61
2022/01/20 03:43:37;;;;;;;5.93;1.17;;;5.60;99.90;;;;;;5076616;28;20025;-62
2022/01/20 03:46:09;;;;;;;5.47;0.77;;;5.70;99.90;;;;;;5076666;28;20032;-63
2022/01/20 03:48:38;;;;;;;7.15;1.10;;;5.50;99.90;;;;;;5059991;28;20333;-61
2022/01/20 03:51:05;;;;;;;7.95;0.70;;;5.30;99.90;;;;;;5076586;28;20197;-62
2022/01/20 03:53:38;;;;;;;8.57;0.80;;;5.30;99.90;;;;;;5076478;28;20028;-63
2022/01/20 03:56:08;;;;;;;7.38;1.10;;;5.30;99.90;;;;;;5076660;28;20024;-62
2022/01/20 03:58:48;;;;;;;5.47;1.20;;;5.20;99.90;;;;;;5076451;28;20029;-62
2022/01/20 04:01:15;;;;;;;9.48;1.35;;;5.30;99.90;;;;;;5076523;28;20028;-64
2022/01/20 04:03:59;;;;;;;7.70;0.90;;;5.30;99.90;;;;;;5076585;28;20093;-62
2022/01/20 04:06:38;;;;;;;7.03;0.90;;;5.60;99.90;;;;;;5061888;28;20044;-62
2022/01/20 04:09:04;;;;;;;11.85;1.60;;;5.60;99.90;;;;;;5076968;28;20028;-63
2022/01/20 04:11:30;;;;;;;9.68;1.77;;;5.70;99.90;;;;;;5077116;28;20111;-63
2022/01/20 04:13:57;;;;;;;9.63;1.02;;;5.70;99.90;;;;;;5076249;28;20025;-63
2022/01/20 04:16:39;;;;;;;15.35;1.50;;;5.80;99.90;;;;;;5076359;28;20039;-63
2022/01/20 04:19:10;;;;;;;11.35;1.10;;;5.90;99.90;;;;;;5076252;28;20277;-62
2022/01/20 04:21:38;;;;;;;7.15;1.05;;;5.90;99.90;;;;;;5076005;28;20284;-63
2022/01/20 04:24:06;;;;;;;12.80;1.55;;;5.90;99.90;;;;;;5076081;28;20124;-63
2022/01/20 04:26:35;;;;;;;8.10;1.20;;;5.90;99.90;;;;;;5059465;28;20086;-63
2022/01/20 04:29:03;;;;;;;13.35;1.80;;;6.10;99.90;;;;;;5059737;28;20292;-62
2022/01/20 04:31:33;;;;;;;14.65;1.80;;;6.20;99.90;;;;;;5076394;28;20032;-63
2022/01/20 04:34:00;;;;;;;13.55;1.80;;;6.10;99.90;;;;;;5076332;28;20052;-63
2022/01/20 04:36:29;;;;;;;11.32;2.10;;;6.10;99.90;;;;;;5076051;28;20036;-62
2022/01/20 04:38:56;;;;;;;12.38;2.53;;;5.90;99.90;;;;;;5076158;28;20416;-63
2022/01/20 04:41:23;;;;;;;10.82;2.70;;;5.90;99.90;;;;;;5076247;28;20033;-62
2022/01/20 04:43:49;;;;;;;16.05;2.63;;;5.90;99.90;;;;;;5075872;28;20028;-62
2022/01/20 04:46:28;;;;;;;12.60;1.95;;;5.90;99.90;;;;;;5077019;28;20111;-62
2022/01/20 04:57:15;;;;;;;15.30;2.45;;;5.90;99.90;;;;;;5085686;28;20044;-63
2022/01/20 04:59:41;;;;;;;13.38;2.10;;;5.90;99.90;;;;;;5075903;28;20035;-60
2022/01/20 05:02:07;;;;;;;14.90;1.92;;;6.10;99.90;;;;;;5077045;28;20036;-64
2022/01/20 05:04:44;;;;;;;9.07;1.17;;;6.00;99.90;;;;;;5076171;28;20039;-62
2022/01/20 05:07:23;;;;;;;;;;;6.00;99.90;;;;;;5076184;28;20040;-64
2022/01/20 05:09:51;;;;;;;11.13;2.47;;;5.90;99.90;;;;;;5075746;28;19992;-62
2022/01/20 05:12:23;;;;;;;11.98;2.40;;;5.80;99.90;;;;;;5075688;28;20024;-61
2022/01/20 05:14:49;;;;;;;17.10;2.00;;;5.70;99.90;;;;;;5075747;28;20036;-62
2022/01/20 05:17:16;;;;;;;20.88;2.55;;;5.80;99.90;;;;;;5075670;28;20037;-65
2022/01/20 05:19:45;;;;;;;11.07;1.70;;;5.80;99.90;;;;;;5075725;28;20154;-62
2022/01/20 05:22:11;;;;;;;6.47;1.30;;;5.90;99.90;;;;;;5075908;28;20097;-62
2022/01/20 05:24:45;;;;;;;12.18;1.67;;;5.90;99.90;;;;;;5075787;28;20060;-62
2022/01/20 05:27:11;;;;;;;14.50;1.92;;;5.80;99.90;;;;;;5075519;28;20113;-62
2022/01/20 05:29:37;;;;;;;15.40;2.58;;;5.80;99.90;;;;;;5075893;28;20400;-64
2022/01/20 05:32:05;;;;;;;9.50;1.88;;;5.80;99.90;;;;;;5075809;28;20062;-63
2022/01/20 05:34:31;;;;;;;9.65;1.65;;;5.80;99.90;;;;;;5078988;28;20052;-63
2022/01/20 05:36:56;;;;;;;11.30;1.90;;;5.80;99.90;;;;;;5079122;28;20055;-62
2022/01/20 05:39:24;;;;;;;10.43;1.80;;;5.70;99.90;;;;;;5080042;28;20112;-63
2022/01/20 05:41:50;;;;;;;10.32;2.60;;;5.70;99.90;;;;;;5078983;28;20097;-63
2022/01/20 05:44:55;;;;;;;14.88;2.70;;;5.80;99.90;;;;;;5084410;28;20048;-63
2022/01/20 05:47:27;;;;;;;14.52;2.85;;;5.70;99.90;;;;;;5078865;28;20028;-62
2022/01/20 05:50:10;;;;;;;13.48;2.85;;;5.70;99.90;;;;;;5079698;28;20128;-63
2022/01/20 05:52:41;;;;;;;8.07;2.05;;;5.70;99.90;;;;;;5078883;28;20388;-64
2022/01/20 05:55:15;;;;;;;13.15;2.63;;;5.70;99.90;;;;;;5062231;28;20021;-64
2022/01/20 05:57:42;;;;;;;14.32;2.78;;;5.80;99.90;;;;;;5062559;28;20028;-63
2022/01/20 06:00:12;;;;;;;8.63;2.10;;;5.90;99.90;;;;;;5079643;28;20063;-65
2022/01/20 06:05:32;;;;;;;7.03;1.30;;;5.70;99.90;;;;;;5079458;28;20331;-64
2022/01/20 06:07:58;;;;;;;7.68;1.08;;;5.80;99.90;;;;;;5078578;28;20036;-64
2022/01/20 06:10:24;;;;;;;8.70;1.83;;;5.70;99.90;;;;;;5078511;28;20051;-64
2022/01/20 06:12:56;;;;;;;5.70;1.20;;;5.60;99.90;;;;;;5062831;28;20062;-63
2022/01/20 06:15:22;;;;;;;6.07;0.93;;;5.70;99.90;;;;;;5078876;28;20036;-65
2022/01/20 06:17:48;;;;;;;12.35;1.13;;;5.60;99.90;;;;;;5078391;28;20027;-63
2022/01/20 06:20:14;;;;;;;11.05;1.15;;;5.60;99.90;;;;;;5078561;28;20055;-63
2022/01/20 06:22:42;;;;;;;12.15;1.38;;;5.60;99.90;;;;;;5078266;28;20036;-64
2022/01/20 06:25:08;;;;;;;9.25;1.58;;;5.50;99.90;;;;;;5078232;28;20265;-63
2022/01/20 06:27:34;;;;;;;13.80;1.70;;;5.40;99.90;;;;;;5061579;28;20033;-64
2022/01/20 06:30:00;;;;;;;8.90;1.65;;;5.50;99.90;;;;;;5078947;28;20036;-63
2022/01/20 06:32:27;;;;;;;11.38;1.45;;;5.50;99.90;;;;;;5078038;28;20300;-63
2022/01/20 06:34:53;;;;;;;11.43;1.58;;;5.40;99.90;;;;;;5077940;28;20051;-63
2022/01/20 06:37:19;;;;;;;14.18;1.63;;;5.60;99.90;;;;;;5077993;28;20048;-64
2022/01/20 06:39:45;;;;;;;11.02;1.52;;;5.60;99.90;;;;;;5078652;28;20040;-64
2022/01/20 06:42:11;;;;;;;14.93;2.30;;;5.50;99.90;;;;;;5061317;28;20119;-63
2022/01/20 06:44:37;;;;;;;8.43;1.70;;;5.40;99.90;;;;;;5077891;28;20041;-64
2022/01/20 06:47:03;;;;;;;10.95;1.85;;;5.50;99.90;;;;;;5077807;28;20128;-64
2022/01/20 06:49:32;;;;;;;14.43;1.80;;;5.50;99.90;;;;;;5077676;28;20043;-64
2022/01/20 06:52:04;;;;;;;11.97;2.23;;;5.60;99.90;;;;;;5077661;28;20029;-64
2022/01/20 06:54:30;;;;;;;13.90;1.38;;;5.50;99.90;;;;;;5077660;28;20554;-65
2022/01/20 06:56:59;;;;;;;13.25;2.25;;;5.50;99.90;;;;;;5077592;28;20046;-64
2022/01/20 06:59:25;;;;;;;15.07;1.77;;;5.60;99.90;;;;;;5077446;28;20371;-63
2022/01/20 07:01:52;;;;;;;10.43;2.22;;;5.50;99.90;;;;;;5060907;28;20068;-65
2022/01/20 07:04:27;;;;;;;14.48;1.95;;;5.40;99.90;;;;;;5077661;28;20035;-64
2022/01/20 07:06:54;;;;;;;13.90;1.98;;;5.40;99.90;;;;;;5078200;28;20124;-65
2022/01/20 07:09:39;;;;;;;16.38;2.00;;;5.50;99.90;;;;;;5078351;28;20353;-67
2022/01/20 07:12:18;;;;;;;11.95;2.67;;;5.50;99.90;;;;;;5077179;28;20028;-67
2022/01/20 07:14:44;;;;;;;10.45;2.35;;;5.60;99.90;;;;;;5077062;28;20035;-67
2022/01/20 07:17:10;;;;;;;11.75;2.35;;;5.70;99.90;;;;;;5076814;28;20024;-67
2022/01/20 07:19:39;;;;;;;20.00;2.20;;;5.70;99.90;;;;;;5077045;28;20036;-65
2022/01/20 07:22:07;;;;;;;14.85;2.78;;;5.70;99.90;;;;;;5076940;28;20060;-67
2022/01/20 07:24:33;;;;;;;17.05;2.10;;;5.70;99.90;;;;;;5076936;28;20032;-66
2022/01/20 07:27:09;;;;;;;14.88;2.28;;;5.70;99.90;;;;;;5061842;28;20040;-64
2022/01/20 07:29:36;;;;;;;24.63;4.20;;;5.70;99.90;;;;;;5076993;28;20036;-64
2022/01/20 07:32:03;;;;;;;16.10;2.55;;;5.70;99.90;;;;;;5076691;28;20031;-57
2022/01/20 07:34:30;;;;;;;20.10;2.50;;;5.60;99.90;;;;;;5060171;28;20048;-57
2022/01/20 07:36:56;;;;;;;18.10;2.20;;;5.70;99.90;;;;;;5060230;28;20078;-57
2022/01/20 07:39:22;;;;;;;21.67;2.72;;;5.70;99.90;;;;;;5076726;28;20060;-57
2022/01/20 07:41:49;;;;;;;19.50;2.58;;;5.70;99.90;;;;;;5077129;28;20366;-57
2022/01/20 07:44:34;;;;;;;16.88;3.05;;;5.60;99.90;;;;;;5076784;28;20106;-58
2022/01/20 07:47:20;;;;;;;20.25;2.72;;;5.60;99.90;;;;;;5077204;28;20109;-57
2022/01/20 07:49:45;;;;;;;17.90;2.47;;;5.60;99.90;;;;;;5076853;28;20032;-59
2022/01/20 07:52:12;;;;;;;21.73;2.95;;;5.60;99.90;;;;;;5049174;28;20029;-59
2022/01/20 07:54:38;;;;;;;17.85;2.30;;;5.70;99.90;;;;;;5039592;28;20033;-58
2022/01/20 07:57:05;;;;;;;19.55;2.42;;;5.70;99.90;;;;;;5056835;28;20035;-58
2022/01/20 07:59:31;;;;;;;18.65;2.45;;;5.70;99.90;;;;;;5056423;28;20387;-59
2022/01/20 08:01:57;;;;;;;13.60;2.55;;;5.70;99.90;;;;;;5039696;28;20056;-58
2022/01/20 08:04:23;;;;;;;28.05;2.90;;;5.80;99.90;;;;;;5057118;28;20110;-59
2022/01/20 08:06:49;;;;;;;18.02;2.45;;;5.80;99.90;;;;;;5056500;28;20033;-59
2022/01/20 08:09:19;;;;;;;17.00;2.17;;;5.80;99.90;;;;;;5056442;28;20056;-58
2022/01/20 08:11:58;;;;;;;14.60;2.15;;;5.70;99.90;;;;;;5056169;28;20036;-59
2022/01/20 08:14:46;;;;;;;19.13;2.75;;;5.70;99.90;;;;;;5059116;28;20115;-60
2022/01/20 08:17:18;;;;;;;12.95;2.25;;;5.70;99.90;;;;;;5056066;28;20033;-61
2022/01/20 08:19:48;;;;;;;14.70;1.70;;;5.60;99.90;;;;;;5056448;28;20051;-60
2022/01/20 08:22:15;;;;;;;14.02;2.78;;;5.70;99.90;;;;;;5056073;28;20037;-60
2022/01/20 08:24:41;;;;;;;15.30;2.58;;;5.80;99.90;;;;;;5056030;28;20063;-60
2022/01/20 08:27:11;;;;;;;17.25;2.55;;;5.90;99.90;;;;;;5056291;28;20036;-60
2022/01/20 08:29:37;;;;;;;14.20;1.88;;;6.00;99.90;;;;;;5055925;28;20032;-60
2022/01/20 08:32:04;;;;;;;16.20;2.95;;;6.10;99.90;;;;;;5039368;28;20037;-61
2022/01/20 08:34:35;;;;;;;9.82;1.75;;;6.20;99.90;;;;;;5057398;28;20099;-60
2022/01/20 08:37:27;;;;;;;14.93;2.17;;;6.20;99.90;;;;;;5056187;28;20067;-60
2022/01/20 08:39:53;;;;;;;9.70;2.20;;;6.20;99.90;;;;;;5057269;28;20235;-59
2022/01/20 08:42:19;;;;;;;16.80;2.25;;;6.20;99.90;;;;;;5055811;28;20040;-60
2022/01/20 08:44:45;;;;;;;11.93;2.10;;;6.30;99.90;;;;;;5055871;28;20037;-61
2022/01/20 08:47:19;;;;;;;16.00;2.22;;;6.30;99.90;;;;;;5055755;28;20128;-59
2022/01/20 08:49:49;;;;;;;15.90;2.47;;;6.30;99.90;;;;;;5041029;28;20328;-60
2022/01/20 08:52:19;;;;;;;11.70;1.90;;;6.50;99.90;;;;;;5055815;28;20037;-61
2022/01/20 08:54:50;;;;;;;12.70;2.20;;;6.50;99.90;;;;;;5055866;28;20025;-59
2022/01/20 08:57:56;;;;;;;10.77;1.77;;;6.60;99.90;;;;;;5055788;28;20048;-62
2022/01/20 09:00:26;;;;;;;10.93;1.80;;;6.70;99.90;;;;;;5055631;28;20040;-62
2022/01/20 09:03:03;;;;;;;13.82;1.90;;;6.80;99.90;;;;;;5055663;28;20032;-61
2022/01/20 09:05:30;;;;;;;12.32;1.63;;;6.80;99.90;;;;;;5039197;28;20033;-62
2022/01/20 09:08:12;;;;;;;;;;;6.80;99.90;;;;;;5058129;28;20048;-62
2022/01/20 09:10:47;;;;;;;15.45;2.60;;;6.80;99.90;;;;;;5059403;28;20003;-62
2022/01/20 09:16:02;;;;;;;11.93;2.30;;;6.80;99.90;;;;;;5059543;28;20036;-61
2022/01/20 09:18:38;;;;;;;15.18;2.25;;;6.80;99.90;;;;;;5029387;28;20033;-62
2022/01/20 09:21:05;;;;;;;13.88;2.33;;;6.80;99.90;;;;;;5059349;28;20032;-63
2022/01/20 09:23:32;;;;;;;14.27;2.33;;;6.90;99.90;;;;;;5059322;28;20300;-60
2022/01/20 09:25:59;;;;;;;12.13;2.15;;;7.00;99.90;;;;;;5059198;28;20033;-60
2022/01/20 09:28:27;;;;;;;10.25;1.90;;;7.10;99.90;;;;;;5059100;28;20033;-61
2022/01/20 09:30:57;;;;;;;13.55;2.45;;;7.10;99.90;;;;;;5059864;28;20087;-61
2022/01/20 09:33:27;;;;;;;8.88;1.27;;;7.10;99.90;;;;;;5059486;28;20036;-61
2022/01/20 09:35:53;;;;;;;11.00;2.00;;;7.30;99.90;;;;;;5058886;28;20434;-60
2022/01/20 09:38:20;;;;;;;14.07;1.98;;;7.40;99.90;;;;;;5058971;28;20053;-60
2022/01/20 09:40:46;;;;;;;8.52;1.60;;;7.30;99.90;;;;;;5059807;28;20052;-61
2022/01/20 09:43:16;;;;;;;6.20;1.40;;;7.20;99.90;;;;;;5042319;28;20029;-60
2022/01/20 09:45:54;;;;;;;14.02;1.75;;;7.10;99.90;;;;;;5059142;28;20051;-61
2022/01/20 09:48:24;;;;;;;8.35;1.45;;;7.10;99.90;;;;;;5043087;28;20037;-62
2022/01/20 09:51:13;;;;;;;15.68;1.70;;;7.20;99.90;;;;;;5061512;28;20049;-63
2022/01/20 09:53:42;;;;;;;8.43;1.75;;;7.40;99.90;;;;;;5060008;28;20052;-60
2022/01/20 09:56:28;;;;;;;7.18;1.42;;;7.50;99.90;;;;;;5059446;28;20064;-59
2022/01/20 09:58:54;;;;;;;8.10;1.60;;;7.60;99.90;;;;;;5059645;28;20040;-58
2022/01/20 10:01:58;;;;;;;9.82;1.70;;;7.60;99.90;;;;;;5041996;28;20040;-59
2022/01/20 10:04:35;;;;;;;8.07;1.10;;;7.50;99.90;;;;;;5041367;28;20305;-60
2022/01/20 10:07:10;;;;;;;6.15;1.20;;;7.00;99.90;;;;;;5057030;28;20043;-61
2022/01/20 10:09:45;;;;;;;11.80;1.38;;;6.70;99.90;;;;;;5058416;28;20033;-61
2022/01/20 10:12:30;;;;;;;11.23;1.73;;;6.60;99.90;;;;;;5058440;28;20033;-62
2022/01/20 10:15:17;;;;;;;8.85;1.15;;;6.60;99.90;;;;;;5059327;28;20017;-61
2022/01/20 10:17:45;;;;;;;9.45;1.20;;;6.60;99.90;;;;;;5059159;28;20111;-62
2022/01/20 10:20:14;;;;;;;7.63;1.30;;;6.70;99.90;;;;;;5042376;28;20116;-60
2022/01/20 10:23:05;;;;;;;7.90;1.15;;;6.60;99.90;;;;;;5058690;28;20052;-60
2022/01/20 10:26:16;;;;;;;9.27;1.63;;;6.70;99.90;;;;;;5077059;28;20037;-61
2022/01/20 10:29:13;;;;;;;8.02;1.55;;;6.60;99.90;;;;;;5057885;28;20040;-61
2022/01/20 10:31:40;;;;;;;8.27;1.23;;;6.90;99.90;;;;;;5058819;28;20029;-60
2022/01/20 10:34:31;;;;;;;11.02;1.73;;;7.60;99.90;;;;;;5057858;28;20359;-60
2022/01/20 10:37:14;;;;;;;8.10;1.73;;;8.30;99.90;;;;;;5058246;28;20085;-61
2022/01/20 10:39:46;;;;;;;11.90;1.67;;;8.90;99.90;;;;;;5058614;28;20088;-62
2022/01/20 10:42:16;;;;;;;7.63;1.77;;;9.70;99.90;;;;;;5057813;28;20309;-61
2022/01/20 10:44:56;;;;;;;6.95;2.05;;;10.10;99.90;;;;;;5058206;28;20025;-63
2022/01/20 10:47:23;;;;;;;12.10;2.20;;;10.70;99.90;;;;;;5058509;28;20410;-62
2022/01/20 10:49:51;;;;;;;7.05;1.92;;;11.30;99.90;;;;;;5041144;28;20036;-60
2022/01/20 10:52:23;;;;;;;9.77;2.20;;;11.90;99.90;;;;;;5057436;28;20357;-58
2022/01/20 10:54:54;;;;;;;7.53;1.60;;;12.60;99.90;;;;;;5057545;28;20033;-60
2022/01/20 10:57:36;;;;;;;8.63;1.83;;;12.80;99.90;;;;;;5043547;28;20123;-60
2022/01/20 11:00:11;;;;;;;8.02;1.80;;;12.00;99.90;;;;;;5057392;28;20312;-60
2022/01/20 11:02:49;;;;;;;9.70;1.80;;;11.40;99.90;;;;;;5058465;28;20261;-60
2022/01/20 11:05:16;;;;;;;10.18;1.60;;;10.90;99.90;;;;;;5057587;28;20309;-61
2022/01/20 11:07:44;;;;;;;11.48;1.75;;;10.40;99.90;;;;;;5057385;28;20021;-61
2022/01/20 11:10:11;;;;;;;9.13;2.15;;;9.80;99.90;;;;;;5057180;28;20091;-61
2022/01/20 11:12:47;;;;;;;10.60;1.80;;;9.60;99.90;;;;;;5058416;28;20036;-61
2022/01/20 11:15:36;;;;;;;8.23;1.80;;;9.30;99.90;;;;;;5057196;28;20044;-60
2022/01/20 11:18:04;;;;;;;14.88;1.65;;;9.20;99.90;;;;;;5056985;28;20047;-62
2022/01/20 11:20:43;;;;;;;8.43;1.50;;;8.90;99.90;;;;;;5057263;28;20289;-61
2022/01/20 11:23:12;;;;;;;12.38;1.73;;;8.70;99.90;;;;;;5057470;28;20124;-61
2022/01/20 11:25:45;;;;;;;7.55;2.00;;;8.40;99.90;;;;;;5041805;28;20037;-63
2022/01/20 11:28:24;;;;;;;12.80;1.63;;;8.30;99.90;;;;;;5057017;28;20051;-62
2022/01/20 11:31:28;;;;;;;13.73;2.40;;;9.10;99.90;;;;;;5057004;28;20041;-60
2022/01/20 11:34:18;;;;;;;10.63;1.98;;;10.20;99.90;;;;;;5056941;28;20098;-60
2022/01/20 11:36:44;;;;;;;8.70;1.98;;;11.10;99.90;;;;;;5057710;28;20324;-62
2022/01/20 11:39:11;;;;;;;10.55;1.88;;;11.80;99.90;;;;;;5024000;28;20105;-61
2022/01/20 11:41:49;;;;;;;6.78;1.50;;;12.50;99.90;;;;;;5057469;28;20035;-61
2022/01/20 11:44:20;;;;;;;6.68;1.52;;;12.80;99.90;;;;;;5056659;28;20028;-63
2022/01/20 11:46:49;;;;;;;6.88;1.30;;;13.30;99.90;;;;;;5057895;28;20076;-64
2022/01/20 11:49:17;;;;;;;6.07;1.52;;;13.90;99.90;;;;;;5057236;28;20116;-63
2022/01/20 11:51:55;;;;;;;12.77;2.00;;;13.70;99.90;;;;;;5057252;28;20033;-62
2022/01/20 11:54:29;;;;;;;7.80;1.50;;;13.00;99.90;;;;;;5056726;28;20266;-62
2022/01/20 11:57:16;;;;;;;10.25;1.90;;;12.20;99.90;;;;;;5057241;28;20157;-62
2022/01/20 11:59:54;;;;;;;11.88;1.70;;;11.40;99.90;;;;;;5056506;28;20029;-60
2022/01/20 12:02:38;;;;;;;12.70;1.70;;;10.90;99.90;;;;;;5056711;28;20068;-60
2022/01/20 12:05:30;;;;;;;12.88;2.35;;;9.90;99.90;;;;;;5056384;28;20029;-60
2022/01/20 12:08:15;;;;;;;9.75;1.85;;;9.20;99.90;;;;;;5057337;28;20074;-61
2022/01/20 12:10:45;;;;;;;9.82;2.10;;;8.70;99.90;;;;;;5057095;28;20048;-60
2022/01/20 12:13:13;;;;;;;7.88;1.83;;;8.30;99.90;;;;;;5057073;28;20308;-59
2022/01/20 12:16:01;;;;;;;11.68;1.90;;;8.30;99.90;;;;;;5056920;28;20071;-61
2022/01/20 12:18:29;;;;;;;11.98;2.00;;;8.30;99.90;;;;;;5040678;28;20397;-59
2022/01/20 12:20:55;;;;;;;8.82;2.45;;;8.40;99.90;;;;;;5056895;28;20040;-60
2022/01/20 12:23:24;;;;;;;11.60;2.40;;;8.70;99.90;;;;;;5039378;28;20315;-61
2022/01/20 12:25:50;;;;;;;9.82;2.00;;;8.80;99.90;;;;;;5056701;28;20048;-60
2022/01/20 12:28:17;;;;;;;16.90;2.10;;;8.80;99.90;;;;;;5056737;28;20127;-59
2022/01/20 12:30:49;;;;;;;10.88;1.98;;;8.90;99.90;;;;;;5056627;28;20035;-60
2022/01/20 12:33:18;;;;;;;20.40;1.90;;;9.00;99.90;;;;;;5056816;28;20063;-61
2022/01/20 12:35:49;;;;;;;11.98;1.75;;;8.90;99.90;;;;;;5056678;28;20432;-62
2022/01/20 12:38:28;;;;;;;9.88;1.70;;;9.10;99.90;;;;;;5055948;28;20135;-60
2022/01/20 12:41:17;;;;;;;10.23;1.85;;;9.20;99.90;;;;;;5057128;28;20401;-59
2022/01/20 12:43:48;;;;;;;15.07;1.73;;;9.40;99.90;;;;;;5063364;28;20039;-59
2022/01/20 12:46:17;;;;;;;9.00;1.67;;;9.60;99.90;;;;;;5063348;28;20033;-62
2022/01/20 12:49:04;;;;;;;12.70;1.52;;;9.70;99.90;;;;;;5063357;28;20037;-62
2022/01/20 12:51:32;;;;;;;10.57;1.83;;;9.70;99.90;;;;;;5063330;28;20049;-60
2022/01/20 12:54:05;;;;;;;8.57;1.55;;;9.60;99.90;;;;;;5063263;28;20029;-62
2022/01/20 12:56:33;;;;;;;10.98;2.05;;;9.30;99.90;;;;;;5063731;28;20383;-62
2022/01/20 12:59:00;;;;;;;18.38;2.03;;;9.10;99.90;;;;;;5062600;28;20186;-61
2022/01/20 13:01:37;;;;;;;11.40;1.45;;;8.90;99.90;;;;;;5063265;28;20393;-62
2022/01/20 13:04:05;;;;;;;8.70;1.58;;;8.90;99.90;;;;;;5063150;28;20056;-59
2022/01/20 13:06:32;;;;;;;12.15;1.83;;;9.00;99.90;;;;;;5063129;28;20116;-62
2022/01/20 13:09:09;;;;;;;5.38;1.15;;;9.20;99.90;;;;;;5063030;28;20079;-62
2022/01/20 13:11:59;;;;;;;8.18;1.40;;;9.10;99.90;;;;;;5063458;28;20029;-60
2022/01/20 13:14:48;;;;;;;12.52;1.75;;;9.00;99.90;;;;;;5062813;28;20123;-61
2022/01/20 13:17:22;;;;;;;11.85;2.00;;;8.70;99.90;;;;;;5063231;28;20039;-61
2022/01/20 13:19:49;;;;;;;11.68;1.45;;;8.60;99.90;;;;;;5062549;28;20039;-61
2022/01/20 13:22:24;;;;;;;11.40;2.00;;;8.40;99.90;;;;;;5063348;28;20111;-61
2022/01/20 13:24:49;;;;;;;10.35;1.58;;;8.30;99.90;;;;;;5062291;28;20082;-61
2022/01/20 13:27:15;;;;;;;8.48;1.75;;;8.30;99.90;;;;;;5063427;28;20115;-60
2022/01/20 13:29:47;;;;;;;10.10;1.90;;;8.20;99.90;;;;;;5062904;28;20036;-58
2022/01/20 13:32:13;;;;;;;14.65;1.90;;;8.10;99.90;;;;;;5062125;28;20032;-62
2022/01/20 13:34:50;;;;;;;10.77;1.77;;;8.10;99.90;;;;;;5062780;28;20053;-59
2022/01/20 13:37:16;;;;;;;11.60;1.73;;;8.00;99.90;;;;;;5063247;28;20047;-59
2022/01/20 13:39:44;;;;;;;11.18;1.80;;;7.90;99.90;;;;;;5062867;28;20032;-61
2022/01/20 13:45:14;;;;;;;9.32;1.58;;;7.70;99.90;;;;;;5062862;28;20033;-59
2022/01/20 13:47:49;;;;;;;9.45;1.17;;;7.80;99.90;;;;;;5063220;28;20331;-60
2022/01/20 13:50:21;;;;;;;6.80;0.95;;;7.80;99.90;;;;;;5061913;28;20131;-60
2022/01/20 13:52:47;;;;;;;7.28;1.38;;;7.80;99.90;;;;;;5061550;28;20029;-59
2022/01/20 13:55:37;;;;;;;8.93;1.25;;;7.90;99.90;;;;;;5059404;28;20032;-59
2022/01/20 13:58:04;;;;;;;10.77;1.17;;;8.10;99.90;;;;;;5059044;28;20416;-59
2022/01/20 14:00:35;;;;;;;9.70;1.30;;;8.20;99.90;;;;;;5058752;28;20112;-59
2022/01/20 14:03:05;;;;;;;7.07;1.20;;;8.10;99.90;;;;;;5059500;28;20041;-60
2022/01/20 14:05:33;;;;;;;5.82;1.50;;;8.20;99.90;;;;;;5059672;28;20328;-61
2022/01/20 14:08:02;;;;;;;8.00;0.85;;;8.30;99.90;;;;;;5059656;28;20056;-60
2022/01/20 14:10:28;;;;;;;7.32;1.30;;;8.30;99.90;;;;;;5059715;28;20292;-60
2022/01/20 14:12:56;;;;;;;6.75;1.08;;;8.30;99.90;;;;;;5059158;28;20049;-61
2022/01/20 14:15:25;;;;;;;8.13;1.30;;;8.30;99.90;;;;;;5041215;28;20045;-60
2022/01/20 14:17:54;;;;;;;10.25;1.30;;;8.30;99.90;;;;;;5059385;28;20353;-62
2022/01/20 14:20:28;;;;;;;7.95;1.17;;;8.30;99.90;;;;;;5059013;28;20115;-63
2022/01/20 14:22:57;;;;;;;7.60;1.55;;;8.10;99.90;;;;;;5059372;28;20044;-59